createdAt,value
2022-10-03T00:02:24.475Z,100523.97
2022-10-03T00:05:23.772Z,100533.94
2022-10-03T00:08:14.289Z,100540.25
2022-10-03T00:11:25.612Z,100532.59
2022-10-03T00:14:14.312Z,100532.25
2022-10-03T00:17:26.938Z,100533.13
2022-10-03T00:20:02.536Z,100528.69
2022-10-03T00:22:43.887Z,100529.44
2022-10-03T00:25:50.075Z,100529.03
2022-10-03T00:29:16.838Z,100531.16
2022-10-03T00:32:24.732Z,100543.44
2022-10-03T00:34:54.486Z,100538.22
2022-10-03T00:37:44.784Z,100536.00
2022-10-03T00:40:47.061Z,100530.69
2022-10-03T00:43:41.549Z,100535.56
2022-10-03T00:46:30.379Z,100535.19
2022-10-03T00:49:37.804Z,100518.88
2022-10-03T00:52:33.836Z,100516.16
2022-10-03T00:55:19.257Z,100518.97
2022-10-03T00:58:26.120Z,100526.88
2022-10-03T01:01:05.365Z,100517.41
2022-10-03T01:03:58.954Z,100517.84
2022-10-03T01:06:36.789Z,100526.44
2022-10-03T01:09:31.140Z,100534.06
2022-10-03T01:12:21.251Z,100525.81
2022-10-03T01:15:24.683Z,100528.69
2022-10-03T01:18:13.405Z,100528.13
2022-10-03T01:21:12.449Z,100536.28
2022-10-03T01:24:04.987Z,100517.44
2022-10-03T01:26:43.866Z,100524.78
2022-10-03T01:29:41.711Z,100525.28
2022-10-03T01:32:25.988Z,100526.88
2022-10-03T01:35:11.075Z,100533.44
2022-10-03T01:38:08.918Z,100537.13
2022-10-03T01:41:17.559Z,100528.78
2022-10-03T01:44:13.359Z,100526.09
2022-10-03T01:46:48.414Z,100528.81
2022-10-03T01:49:38.486Z,100529.00
2022-10-03T01:52:21.318Z,100530.22
2022-10-03T01:55:15.883Z,100532.94
2022-10-03T01:58:17.555Z,100531.91
2022-10-03T02:01:00.654Z,100525.34
2022-10-03T02:03:52.201Z,100533.16
2022-10-03T02:07:05.791Z,100535.19
2022-10-03T02:10:09.758Z,100538.06
2022-10-03T02:13:06.095Z,100541.34
2022-10-03T02:16:06.099Z,100528.69
2022-10-03T02:19:09.297Z,100538.69
2022-10-03T02:21:54.589Z,100534.16
2022-10-03T02:25:06.155Z,100545.03
2022-10-03T02:28:35.182Z,100545.03
2022-10-03T02:31:23.469Z,100552.38
2022-10-03T02:34:16.054Z,100546.06
2022-10-03T02:36:48.867Z,100552.63
2022-10-03T02:39:23.192Z,100557.50
2022-10-03T02:42:25.214Z,100558.94
2022-10-03T02:45:13.238Z,100559.75
2022-10-03T02:48:33.575Z,100563.00
2022-10-03T02:52:08.633Z,100566.47
2022-10-03T02:54:57.231Z,100568.31
2022-10-03T02:57:51.883Z,100558.75
2022-10-03T03:00:31.659Z,100563.06
2022-10-03T03:03:34.976Z,100564.28
2022-10-03T03:06:33.718Z,100549.75
2022-10-03T03:09:18.896Z,100565.91
2022-10-03T03:12:14.991Z,100561.41
2022-10-03T03:14:54.328Z,100561.78
2022-10-03T03:17:36.803Z,100570.41
2022-10-03T03:20:14.823Z,100562.03
2022-10-03T03:22:56.024Z,100566.34
2022-10-03T03:26:16.011Z,100566.09
2022-10-03T03:28:57.991Z,100568.53
2022-10-03T03:31:56.551Z,100559.78
2022-10-03T03:34:44.219Z,100563.25
2022-10-03T03:38:01.283Z,100555.28
2022-10-03T03:40:59.090Z,100554.91
2022-10-03T03:43:55.643Z,100556.91
2022-10-03T03:47:09.328Z,100550.78
2022-10-03T03:50:07.177Z,100559.19
2022-10-03T03:53:18.218Z,100558.34
2022-10-03T03:56:06.310Z,100553.22
2022-10-03T03:59:03.337Z,100567.97
2022-10-03T04:01:38.840Z,100574.09
2022-10-03T04:04:23.308Z,100563.06
2022-10-03T04:07:27.867Z,100564.91
2022-10-03T04:10:56.687Z,100553.25
2022-10-03T04:13:37.117Z,100562.25
2022-10-03T04:16:54.883Z,100565.09
2022-10-03T04:20:11.503Z,100563.03
2022-10-03T04:23:02.136Z,100559.19
2022-10-03T04:25:58.222Z,100563.44
2022-10-03T04:28:48.427Z,100572.47
2022-10-03T04:32:01.836Z,100571.66
2022-10-03T04:35:02.557Z,100570.63
2022-10-03T04:37:52.713Z,100570.63
2022-10-03T04:40:27.454Z,100570.63
2022-10-03T04:43:40.500Z,100573.28
2022-10-03T04:46:53.048Z,100568.38
2022-10-03T04:49:46.283Z,100569.59
2022-10-03T04:52:42.037Z,100575.53
2022-10-03T04:55:47.938Z,100579.84
2022-10-03T04:59:27.557Z,100584.13
2022-10-03T05:02:02.479Z,100585.53
2022-10-03T05:04:31.152Z,100573.06
2022-10-03T05:07:42.111Z,100577.59
2022-10-03T05:10:40.225Z,100577.78
2022-10-03T05:13:51.570Z,100579.81
2022-10-03T05:16:32.058Z,100586.38
2022-10-03T05:19:41.715Z,100602.50
2022-10-03T05:22:23.922Z,100597.81
2022-10-03T05:25:18.771Z,100604.38
2022-10-03T05:28:11.600Z,100609.25
2022-10-03T05:31:29.291Z,100604.56
2022-10-03T05:34:26.576Z,100624.38
2022-10-03T05:37:25.327Z,100634.19
2022-10-03T05:40:00.019Z,100637.06
2022-10-03T05:42:51.403Z,100649.34
2022-10-03T05:45:52.367Z,100648.91
2022-10-03T05:49:10.727Z,100665.28
2022-10-03T05:52:16.445Z,100667.53
2022-10-03T05:55:19.123Z,100663.44
2022-10-03T05:58:23.958Z,100670.81
2022-10-03T06:01:10.085Z,100675.94
2022-10-03T06:04:22.770Z,100667.13
2022-10-03T06:07:20.802Z,100673.88
2022-10-03T06:09:53.720Z,100675.09
2022-10-03T06:12:32.071Z,100672.25
2022-10-03T06:15:27.076Z,100680.84
2022-10-03T06:18:16.663Z,100680.06
2022-10-03T06:21:32.889Z,100689.88
2022-10-03T06:24:39.512Z,100689.66
2022-10-03T06:27:38.850Z,100683.31
2022-10-03T06:30:37.240Z,100690.06
2022-10-03T06:33:26.218Z,100694.38
2022-10-03T06:36:08.333Z,100686.16
2022-10-03T06:39:09.601Z,100696.81
2022-10-03T06:42:07.453Z,100706.25
2022-10-03T06:45:11.544Z,100707.47
2022-10-03T06:48:24.663Z,100706.19
2022-10-03T06:51:30.384Z,100703.69
2022-10-03T06:54:30.853Z,100707.66
2022-10-03T06:57:04.663Z,100713.16
2022-10-03T06:59:58.617Z,100721.38
2022-10-03T07:02:49.058Z,100716.88
2022-10-03T07:05:46.518Z,100722.19
2022-10-03T07:09:00.726Z,100722.50
2022-10-03T07:12:21.164Z,100728.22
2022-10-03T07:15:50.088Z,100737.44
2022-10-03T07:18:35.637Z,100742.44
2022-10-03T07:21:33.750Z,100741.47
2022-10-03T07:24:34.627Z,100739.16
2022-10-03T07:27:40.732Z,100745.00
2022-10-03T07:30:27.007Z,100745.47
2022-10-03T07:33:06.147Z,100752.69
2022-10-03T07:36:09.008Z,100752.78
2022-10-03T07:39:23.299Z,100757.31
2022-10-03T07:42:17.462Z,100761.81
2022-10-03T07:45:23.301Z,100752.47
2022-10-03T07:48:33.990Z,100768.16
2022-10-03T07:51:10.878Z,100772.69
2022-10-03T07:54:24.694Z,100770.81
2022-10-03T07:57:21.952Z,100778.94
2022-10-03T08:00:13.671Z,100780.06
2022-10-03T08:03:14.974Z,100799.00
2022-10-03T08:06:15.975Z,100798.38
2022-10-03T08:09:00.784Z,100804.97
2022-10-03T08:11:46.488Z,100807.97
2022-10-03T08:15:05.349Z,100793.56
2022-10-03T08:17:47.621Z,100816.56
2022-10-03T08:20:26.277Z,100811.66
2022-10-03T08:23:29.798Z,100802.16
2022-10-03T08:26:34.068Z,100818.66
2022-10-03T08:29:45.826Z,100817.00
2022-10-03T08:33:19.755Z,100817.25
2022-10-03T08:35:58.407Z,100832.78
2022-10-03T08:38:56.677Z,100841.81
2022-10-03T08:42:14.964Z,100832.59
2022-10-03T08:45:27.810Z,100845.66
2022-10-03T08:48:20.108Z,100841.50
2022-10-03T08:51:31.622Z,100847.63
2022-10-03T08:54:03.009Z,100839.47
2022-10-03T09:00:41.863Z,100845.03
2022-10-03T09:03:57.600Z,100845.72
2022-10-03T09:07:16.143Z,100843.03
2022-10-03T09:10:07.719Z,100856.13
2022-10-03T09:13:20.714Z,100864.00
2022-10-03T09:16:45.550Z,100848.94
2022-10-03T09:20:09.300Z,100860.56
2022-10-03T09:23:03.765Z,100862.47
2022-10-03T09:26:27.828Z,100876.34
2022-10-03T09:29:35.234Z,100861.69
2022-10-03T09:32:30.029Z,100871.25
2022-10-03T09:35:34.826Z,100874.09
2022-10-03T09:38:23.166Z,100860.38
2022-10-03T09:41:32.536Z,100869.75
2022-10-03T09:44:40.089Z,100879.25
2022-10-03T09:47:49.397Z,100881.69
2022-10-03T09:50:52.048Z,100889.13
2022-10-03T09:53:44.692Z,100881.25
2022-10-03T09:56:40.180Z,100885.34
2022-10-03T10:00:08.687Z,100893.25
2022-10-03T10:03:21.890Z,100896.59
2022-10-03T10:06:01.318Z,100895.00
2022-10-03T10:09:10.111Z,100897.69
2022-10-03T10:12:23.886Z,100896.50
2022-10-03T10:15:26.630Z,100892.56
2022-10-03T10:18:15.863Z,100908.22
2022-10-03T10:21:06.638Z,100915.38
2022-10-03T10:24:21.796Z,100913.34
2022-10-03T10:27:29.940Z,100916.03
2022-10-03T10:30:39.178Z,100921.97
2022-10-03T10:33:24.541Z,100924.25
2022-10-03T10:36:38.902Z,100920.22
2022-10-03T10:39:41.855Z,100928.72
2022-10-03T10:42:30.572Z,100928.56
2022-10-03T10:45:53.803Z,100932.47
2022-10-03T10:48:35.702Z,100939.47
2022-10-03T10:51:53.021Z,100938.41
2022-10-03T10:55:06.969Z,100930.44
2022-10-03T10:58:17.912Z,100929.13
2022-10-03T11:01:09.324Z,100937.41
2022-10-03T11:04:20.184Z,100932.78
2022-10-03T11:07:21.700Z,100941.91
2022-10-03T11:10:01.766Z,100945.84
2022-10-03T11:12:48.059Z,100946.09
2022-10-03T11:16:04.758Z,100942.09
2022-10-03T11:19:03.929Z,100947.59
2022-10-03T11:22:00.138Z,100949.91
2022-10-03T11:25:07.850Z,100934.66
2022-10-03T11:28:33.034Z,100944.69
2022-10-03T11:32:15.058Z,100940.78
2022-10-03T11:35:25.890Z,100937.31
2022-10-03T11:38:14.184Z,100947.00
2022-10-03T11:41:01.144Z,100949.38
2022-10-03T11:44:11.648Z,100915.47
2022-10-03T11:47:18.684Z,100953.44
2022-10-03T11:50:14.478Z,100955.28
2022-10-03T11:52:59.771Z,100951.53
2022-10-03T11:55:42.208Z,100947.63
2022-10-03T11:58:32.318Z,100952.25
2022-10-03T12:01:51.329Z,100951.00
2022-10-03T12:05:04.073Z,100950.47
2022-10-03T12:07:58.440Z,100953.19
2022-10-03T12:10:46.029Z,100977.06
2022-10-03T12:13:21.936Z,100992.63
2022-10-03T12:15:54.475Z,100996.22
2022-10-03T12:18:43.055Z,100988.78
2022-10-03T12:21:54.311Z,100996.97
2022-10-03T12:24:33.177Z,101008.72
2022-10-03T12:27:34.308Z,101025.28
2022-10-03T12:30:14.499Z,101027.00
2022-10-03T12:33:28.758Z,101031.91
2022-10-03T12:36:23.364Z,101029.63
2022-10-03T12:39:45.467Z,101015.94
2022-10-03T12:42:41.527Z,101019.00
2022-10-03T12:45:48.316Z,101025.16
2022-10-03T12:48:24.312Z,101029.38
2022-10-03T12:51:23.949Z,101024.78
2022-10-03T12:54:27.586Z,101036.97
2022-10-03T12:57:45.145Z,101040.16
2022-10-03T13:00:24.349Z,101042.00
2022-10-03T13:03:09.396Z,101039.44
2022-10-03T13:06:02.816Z,101039.50
2022-10-03T13:08:56.288Z,101025.59
2022-10-03T13:11:57.205Z,101028.59
2022-10-03T13:14:50.177Z,101027.69
2022-10-03T13:17:51.741Z,101036.13
2022-10-03T13:20:37.188Z,101037.22
2022-10-03T13:23:42.894Z,101035.28
2022-10-03T13:26:24.584Z,101023.81
2022-10-03T13:32:32.983Z,101042.94
2022-10-03T13:35:33.713Z,101038.25
2022-10-03T13:38:13.821Z,101032.00
2022-10-03T13:40:56.737Z,101032.13
2022-10-03T13:43:36.335Z,101037.91
2022-10-03T13:46:13.317Z,101034.13
2022-10-03T13:48:47.643Z,101040.63
2022-10-03T13:51:50.566Z,101050.41
2022-10-03T13:55:11.635Z,101046.28
2022-10-03T13:58:14.333Z,101041.13
2022-10-03T14:01:13.952Z,101049.78
2022-10-03T14:04:27.274Z,101050.25
2022-10-03T14:07:29.532Z,101045.78
2022-10-03T14:11:04.520Z,101049.53
2022-10-03T14:13:36.653Z,101050.16
2022-10-03T14:16:30.408Z,101052.81
2022-10-03T14:19:17.128Z,101065.09
2022-10-03T14:22:02.768Z,101053.88
2022-10-03T14:25:05.429Z,101053.09
2022-10-03T14:27:35.371Z,101059.91
2022-10-03T14:30:18.620Z,101068.66
2022-10-03T14:33:31.595Z,101062.94
2022-10-03T14:36:44.133Z,101070.59
2022-10-03T14:39:41.262Z,101076.94
2022-10-03T14:42:44.784Z,101070.88
2022-10-03T14:45:21.634Z,101069.34
2022-10-03T14:47:53.917Z,101062.53
2022-10-03T14:50:30.913Z,101064.06
2022-10-03T14:53:34.030Z,101061.81
2022-10-03T14:56:12.868Z,101070.50
2022-10-03T14:58:53.953Z,101070.19
2022-10-03T15:01:29.026Z,101059.81
2022-10-03T15:04:32.405Z,101061.03
2022-10-03T15:07:15.837Z,101059.25
2022-10-03T15:09:50.420Z,101065.41
2022-10-03T15:12:31.285Z,101069.38
2022-10-03T15:15:07.412Z,101065.06
2022-10-03T15:17:49.797Z,101072.53
2022-10-03T15:20:27.041Z,101065.13
2022-10-03T15:22:58.617Z,101069.25
2022-10-03T15:25:40.094Z,101072.94
2022-10-03T15:28:21.399Z,101079.34
2022-10-03T15:30:53.574Z,101066.78
2022-10-03T15:33:33.998Z,101073.78
2022-10-03T15:36:26.956Z,101071.56
2022-10-03T15:39:02.327Z,101065.59
2022-10-03T15:41:50.523Z,101072.56
2022-10-03T15:44:33.950Z,101075.47
2022-10-03T15:47:27.325Z,101072.56
2022-10-03T15:50:22.413Z,101069.66
2022-10-03T15:53:35.589Z,101070.50
2022-10-03T15:56:24.138Z,101060.69
2022-10-03T15:59:01.449Z,101077.97
2022-10-03T16:01:40.046Z,101074.25
2022-10-03T16:04:35.607Z,101076.28
2022-10-03T16:07:55.078Z,101081.63
2022-10-03T16:10:30.231Z,101087.00
2022-10-03T16:13:10.421Z,101082.47
2022-10-03T16:16:23.904Z,101083.53
2022-10-03T16:19:22.436Z,101084.75
2022-10-03T16:22:13.487Z,101085.31
2022-10-03T16:25:05.756Z,101091.03
2022-10-03T16:27:55.826Z,101093.53
2022-10-03T16:30:30.059Z,101084.88
2022-10-03T16:33:16.362Z,101083.66
2022-10-03T16:36:16.790Z,101098.06
2022-10-03T16:38:54.286Z,101092.50
2022-10-03T16:41:31.977Z,101095.63
2022-10-03T16:44:23.275Z,101097.28
2022-10-03T16:46:59.814Z,101107.72
2022-10-03T16:49:53.532Z,101110.81
2022-10-03T16:52:35.727Z,101111.63
2022-10-03T16:55:26.518Z,101095.63
2022-10-03T16:58:00.088Z,101097.66
2022-10-03T17:01:09.029Z,101096.25
2022-10-03T17:04:17.690Z,101102.16
2022-10-03T17:06:55.833Z,101098.81
2022-10-03T17:09:37.279Z,101092.25
2022-10-03T17:12:13.681Z,101096.75
2022-10-03T17:14:44.670Z,101098.41
2022-10-03T17:17:31.801Z,101094.28
2022-10-03T17:20:14.785Z,101091.78
2022-10-03T17:22:45.870Z,101082.38
2022-10-03T17:25:19.104Z,101087.63
2022-10-03T17:27:52.539Z,101083.78
2022-10-03T17:30:43.571Z,101089.31
2022-10-03T17:33:25.979Z,101079.44
2022-10-03T17:36:15.431Z,101092.03
2022-10-03T17:39:10.556Z,101086.28
2022-10-03T17:42:01.878Z,101085.78
2022-10-03T17:44:52.808Z,101079.44
2022-10-03T17:47:57.063Z,101084.38
2022-10-03T17:50:32.047Z,101079.19
2022-10-03T17:53:00.733Z,101073.94
2022-10-03T17:55:41.879Z,101074.22
2022-10-03T17:58:19.727Z,101069.53
2022-10-03T18:00:46.823Z,101073.78
2022-10-03T18:03:30.934Z,101086.75
2022-10-03T18:06:31.874Z,101083.91
2022-10-03T18:09:07.437Z,101079.19
2022-10-03T18:11:38.010Z,101079.16
2022-10-03T18:14:20.738Z,101079.03
2022-10-03T18:17:09.300Z,101083.81
2022-10-03T18:19:51.386Z,101080.81
2022-10-03T18:22:40.869Z,101082.66
2022-10-03T18:26:19.665Z,101082.72
2022-10-03T18:29:23.676Z,101082.34
2022-10-03T18:32:12.872Z,101079.63
2022-10-03T18:34:55.578Z,101082.72
2022-10-03T18:37:28.692Z,101081.09
2022-10-03T18:40:48.518Z,101081.31
2022-10-03T18:43:37.035Z,101077.53
2022-10-03T18:46:22.787Z,101079.47
2022-10-03T18:49:31.479Z,101077.00
2022-10-03T18:52:24.110Z,101076.38
2022-10-03T18:55:05.267Z,101074.31
2022-10-03T18:57:41.350Z,101082.28
2022-10-03T19:00:21.511Z,101081.72
2022-10-03T19:03:20.029Z,101088.75
2022-10-03T19:05:58.511Z,101086.88
2022-10-03T19:08:59.363Z,101080.69
2022-10-03T19:11:42.312Z,101086.78
2022-10-03T19:14:29.241Z,101085.44
2022-10-03T19:17:11.646Z,101077.84
2022-10-03T19:20:12.231Z,101073.72
2022-10-03T19:22:43.662Z,101069.19
2022-10-03T19:25:23.712Z,101072.13
2022-10-03T19:28:08.791Z,101074.22
2022-10-03T19:30:37.353Z,101071.66
2022-10-03T19:33:25.892Z,101080.31
2022-10-03T19:36:03.463Z,101071.31
2022-10-03T19:38:40.184Z,101077.00
2022-10-03T19:41:26.513Z,101073.69
2022-10-03T19:43:57.215Z,101082.97
2022-10-03T19:47:05.518Z,101076.38
2022-10-03T19:50:02.040Z,101079.16
2022-10-03T19:52:41.848Z,101074.53
2022-10-03T19:55:17.589Z,101074.13
2022-10-03T19:57:58.984Z,101075.69
2022-10-03T20:00:39.470Z,101077.72
2022-10-03T20:03:25.446Z,101077.72
2022-10-03T20:06:26.869Z,101073.16
2022-10-03T20:09:08.572Z,101075.25
2022-10-03T20:11:56.978Z,101078.00
2022-10-03T20:14:35.978Z,101073.13
2022-10-03T20:17:25.385Z,101068.63
2022-10-03T20:20:01.707Z,101072.56
2022-10-03T20:22:36.934Z,101070.03
2022-10-03T20:25:21.641Z,101071.06
2022-10-03T20:27:55.979Z,101069.19
2022-10-03T20:30:46.155Z,101058.50
2022-10-03T20:33:27.639Z,101060.84
2022-10-03T20:36:18.056Z,101063.31
2022-10-03T20:39:04.603Z,101058.28
2022-10-03T20:42:05.518Z,101049.66
2022-10-03T20:45:03.877Z,101057.53
2022-10-03T20:48:06.359Z,101056.78
2022-10-03T20:50:49.689Z,101062.47
2022-10-03T20:53:25.353Z,101059.03
2022-10-03T20:55:58.095Z,101065.50
2022-10-03T20:58:30.355Z,101066.19
2022-10-03T21:01:09.977Z,101060.88
2022-10-03T21:04:24.271Z,101066.06
2022-10-03T21:07:06.364Z,101059.00
2022-10-03T21:09:50.613Z,101064.97
2022-10-03T21:12:28.352Z,101055.75
2022-10-03T21:15:17.495Z,101054.13
2022-10-03T21:17:46.970Z,101058.16
2022-10-03T21:20:32.253Z,101046.25
2022-10-03T21:23:24.012Z,101052.22
2022-10-03T21:25:58.967Z,101046.91
2022-10-03T21:28:36.324Z,101042.84
2022-10-03T21:31:22.149Z,101056.66
2022-10-03T21:34:15.924Z,101054.88
2022-10-03T21:36:56.123Z,101057.91
2022-10-03T21:39:56.106Z,101050.19
2022-10-03T21:42:27.614Z,101045.47
2022-10-03T21:44:54.711Z,101050.97
2022-10-03T21:47:46.543Z,101041.59
2022-10-03T21:50:31.942Z,101040.66
2022-10-03T21:53:51.797Z,101038.13
2022-10-03T21:56:56.098Z,101041.03
2022-10-03T21:59:57.553Z,101038.28
2022-10-03T22:02:55.942Z,101038.28
2022-10-03T22:05:40.669Z,101031.09
2022-10-03T22:08:40.626Z,101035.03
2022-10-03T22:11:14.751Z,101032.19
2022-10-03T22:13:55.194Z,101032.13
2022-10-03T22:16:57.085Z,101035.03
2022-10-03T22:19:59.211Z,101032.50
2022-10-03T22:22:36.483Z,101036.09
2022-10-03T22:25:39.452Z,101041.03
2022-10-03T22:29:07.284Z,101035.66
2022-10-03T22:31:40.514Z,101035.66
2022-10-03T22:34:13.570Z,101036.44
2022-10-03T22:36:41.709Z,101044.66
2022-10-03T22:39:12.814Z,101038.50
2022-10-03T22:41:44.250Z,101031.75
2022-10-03T22:44:15.179Z,101034.03
2022-10-03T22:46:50.253Z,101036.06
2022-10-03T22:49:25.744Z,101033.50
2022-10-03T22:51:57.152Z,101031.25
2022-10-03T22:54:35.089Z,101032.50
2022-10-03T22:57:12.269Z,101031.31
2022-10-03T22:59:49.793Z,101027.13
2022-10-03T23:02:20.114Z,101014.16
2022-10-03T23:05:01.002Z,101022.75
2022-10-03T23:08:13.273Z,101028.56
2022-10-03T23:10:55.027Z,101031.88
2022-10-03T23:13:41.063Z,101021.09
2022-10-03T23:16:28.794Z,101018.00
2022-10-03T23:19:44.391Z,101023.19
2022-10-03T23:22:18.358Z,101027.78
2022-10-03T23:25:06.079Z,101026.41
2022-10-03T23:28:19.869Z,101036.22
2022-10-03T23:30:52.098Z,101038.88
2022-10-03T23:33:33.677Z,101039.81
2022-10-03T23:36:30.397Z,101042.09
2022-10-03T23:39:01.620Z,101038.44
2022-10-03T23:41:34.508Z,101045.03
2022-10-03T23:44:02.638Z,101047.94
2022-10-03T23:46:31.840Z,101042.16
2022-10-03T23:49:02.608Z,101046.66
2022-10-03T23:51:35.682Z,101049.22
2022-10-03T23:54:08.590Z,101061.06
2022-10-03T23:56:44.552Z,101054.97
2022-10-03T23:59:14.718Z,101066.25
